Time;durP1;ratioP1;P1;durP2;ratioP2;P2;SDS_P1;SDS_P2;PMS_P1;PMS_P2;Temp;Humidity;BMP_temperature;BMP_pressure;BME280_temperature;BME280_humidity;BME280_pressure;Samples;Min_cycle;Max_cycle;Signal;HPM_P1;HPM_P2
2021/05/27 05:30:15;;;;;;;4.17;2.17;;;;;;;13.43;66.12;100001.06;1760814;77;26790;31
2021/05/27 05:32:43;;;;;;;3.45;2.20;;;;;;;13.53;65.83;100004.72;1704410;82;28075;-59
2021/05/27 05:35:12;;;;;;;4.10;1.90;;;;;;;13.72;65.95;99999.33;1703210;82;25937;-59
2021/05/27 05:37:39;;;;;;;3.20;2.05;;;;;;;13.84;65.13;99984.39;1681843;82;25799;-59
2021/05/27 05:40:10;;;;;;;3.72;1.87;;;;;;;13.93;64.85;99981.02;1663422;83;26245;-59
2021/05/27 05:42:38;;;;;;;4.45;2.55;;;;;;;14.03;63.46;99988.48;1723929;81;25963;-60
2021/05/27 05:45:07;;;;;;;3.27;2.00;;;;;;;14.16;64.02;99979.98;1757992;80;27438;-59
2021/05/27 05:47:34;;;;;;;7.22;2.10;;;;;;;14.34;63.42;99987.36;1759014;80;25827;-59
2021/05/27 05:50:02;;;;;;;5.12;1.80;;;;;;;14.45;63.14;99993.69;1761887;80;25827;-59
2021/05/27 05:52:30;;;;;;;4.47;2.00;;;;;;;14.55;62.95;99991.28;1728708;81;25723;-59
2021/05/27 05:54:57;;;;;;;6.72;1.82;;;;;;;14.74;63.34;99996.17;1758036;80;25429;-59
2021/05/27 05:57:24;;;;;;;3.20;2.05;;;;;;;14.92;62.59;99995.89;1768838;80;27341;-59
2021/05/27 05:59:50;;;;;;;3.10;2.12;;;;;;;15.05;62.33;100007.53;1754331;80;25839;-60
2021/05/27 06:02:17;;;;;;;4.53;1.90;;;;;;;15.18;61.94;100004.98;1760835;80;25709;-60
2021/05/27 06:04:44;;;;;;;6.08;2.20;;;;;;;15.22;60.97;100007.26;1764569;80;25926;-60
2021/05/27 06:07:10;;;;;;;4.03;1.98;;;;;;;15.13;59.88;100012.83;1754766;79;25629;-57
2021/05/27 06:09:37;;;;;;;3.00;1.80;;;;;;;15.07;59.47;100014.81;1726948;81;27349;-59
2021/05/27 06:12:04;;;;;;;3.90;2.00;;;;;;;14.99;59.92;100009.71;1754739;79;25740;-59
2021/05/27 06:14:33;;;;;;;4.35;1.80;;;;;;;14.97;60.06;100009.27;1757827;80;25885;-59
2021/05/27 06:16:59;;;;;;;4.22;1.77;;;;;;;15.02;60.16;100005.52;1760521;80;26049;-59
2021/05/27 06:19:25;;;;;;;4.10;2.47;;;;;;;15.17;61.04;100007.50;1764522;80;25763;-59
2021/05/27 06:21:52;;;;;;;3.47;1.85;;;;;;;15.39;61.06;100008.07;1768829;79;27431;-59
2021/05/27 06:24:18;;;;;;;2.65;1.40;;;;;;;15.57;59.81;100009.92;1756174;80;26191;-59
2021/05/27 06:26:44;;;;;;;3.10;1.70;;;;;;;15.52;58.88;100013.69;1758909;80;25818;-59
2021/05/27 06:29:11;;;;;;;3.58;1.70;;;;;;;15.47;58.89;100012.58;1760559;80;25767;-59
2021/05/27 06:31:37;;;;;;;1.92;1.65;;;;;;;15.53;58.93;100017.20;1724765;80;25932;-59
2021/05/27 06:34:03;;;;;;;6.90;1.80;;;;;;;15.64;58.70;100006.02;1760540;79;26377;-59
2021/05/27 06:36:29;;;;;;;1.95;1.75;;;;;;;15.78;58.45;100015.97;1757978;80;25875;-59
2021/05/27 06:38:56;;;;;;;2.70;1.45;;;;;;;15.94;57.61;100017.33;1755013;80;25629;-59
2021/05/27 06:41:22;;;;;;;2.92;2.17;;;;;;;16.08;58.11;100012.01;1760932;80;25793;-59
2021/05/27 06:43:49;;;;;;;4.85;1.85;;;;;;;16.13;57.50;100018.56;1768222;80;25823;-59
2021/05/27 06:46:15;;;;;;;3.08;1.70;;;;;;;16.19;57.31;100025.31;1726501;80;25738;-59
2021/05/27 06:48:42;;;;;;;2.92;1.55;;;;;;;16.19;55.07;100026.68;1764066;80;25810;-59
2021/05/27 06:51:08;;;;;;;4.65;1.50;;;;;;;16.16;56.23;100013.19;1761398;80;25807;-59
2021/05/27 06:53:34;;;;;;;2.12;1.92;;;;;;;16.28;56.11;100024.58;1755198;80;26019;-59
2021/05/27 06:56:01;;;;;;;1.77;1.65;;;;;;;16.39;56.22;100028.33;1754488;80;25757;-57
2021/05/27 06:58:27;;;;;;;3.17;2.17;;;;;;;16.47;55.83;100023.84;1759156;79;25776;-60
2021/05/27 07:00:54;;;;;;;3.30;2.30;;;;;;;16.65;55.95;100024.23;1750882;80;26585;-61
2021/05/27 07:03:21;;;;;;;4.08;2.42;;;;;;;16.83;54.49;100027.94;1762404;80;25874;-59
2021/05/27 07:05:48;;;;;;;3.77;2.77;;;;;;;16.92;55.00;100029.33;1762816;80;25675;-60
2021/05/27 07:08:15;;;;;;;8.38;2.65;;;;;;;17.03;54.74;100023.32;1764671;80;25854;-59
2021/05/27 07:10:41;;;;;;;5.33;2.70;;;;;;;17.17;54.91;100026.33;1754274;80;26262;-60
2021/05/27 07:13:09;;;;;;;4.20;2.90;;;;;;;17.56;54.22;100030.40;1758162;80;25736;-60
2021/05/27 07:15:37;;;;;;;1.60;1.35;;;;;;;17.80;54.60;100027.11;1756194;80;25699;-60
2021/05/27 07:18:05;;;;;;;5.22;2.37;;;;;;;17.97;53.57;100034.08;1764556;79;26946;-59
2021/05/27 07:20:32;;;;;;;4.08;2.37;;;;;;;18.00;52.37;100019.08;1751837;80;25852;-60
2021/05/27 07:22:58;;;;;;;3.10;2.22;;;;;;;18.03;53.27;100027.93;1760431;80;25739;-59
2021/05/27 07:25:26;;;;;;;3.33;1.95;;;;;;;18.10;52.63;100021.78;1767184;80;27022;-59
2021/05/27 07:27:54;;;;;;;2.42;1.98;;;;;;;18.09;52.86;100025.67;1761635;80;26471;-59
2021/05/27 07:30:22;;;;;;;2.65;1.70;;;;;;;17.90;51.39;100034.73;1766177;80;25734;-59
2021/05/27 07:32:49;;;;;;;2.77;2.17;;;;;;;17.67;52.39;100036.05;1764477;80;25917;-59
2021/05/27 07:35:16;;;;;;;5.95;2.30;;;;;;;17.49;52.52;100038.47;1751538;80;25567;-59
2021/05/27 07:37:42;;;;;;;2.75;2.30;;;;;;;17.24;51.65;100042.08;1753775;80;25512;-59
2021/05/27 07:40:09;;;;;;;3.70;2.22;;;;;;;16.96;52.48;100045.81;1767117;80;25612;-58
2021/05/27 07:42:36;;;;;;;2.20;2.00;;;;;;;16.87;53.15;100055.56;1763238;80;25848;-59
2021/05/27 07:45:05;;;;;;;2.87;2.60;;;;;;;16.79;53.32;100050.50;1749592;80;25865;-59
2021/05/27 07:47:32;;;;;;;3.65;2.35;;;;;;;16.73;53.59;100053.28;1750998;80;26148;-58
2021/05/27 07:50:02;;;;;;;6.08;2.83;;;;;;;16.61;53.61;100051.45;1750795;80;25768;-59
2021/05/27 07:52:29;;;;;;;3.10;1.98;;;;;;;16.56;53.98;100048.21;1762479;80;25850;-59
2021/05/27 07:54:55;;;;;;;3.80;2.40;;;;;;;16.83;55.39;100060.13;1763179;80;25669;-59
2021/05/27 07:57:23;;;;;;;2.92;2.12;;;;;;;17.11;55.00;100055.89;1763358;79;25856;-60
2021/05/27 07:59:49;;;;;;;3.60;2.40;;;;;;;17.16;54.06;100061.63;1753833;80;26979;-59
2021/05/27 08:02:15;;;;;;;3.10;2.12;;;;;;;17.13;54.04;100051.44;1764360;80;25934;-59
2021/05/27 08:04:42;;;;;;;4.28;2.22;;;;;;;17.11;53.67;100061.36;1761214;80;25771;-59
2021/05/27 08:07:11;;;;;;;18.00;2.52;;;;;;;17.03;53.35;100062.94;1754309;80;25780;-59
2021/05/27 08:09:38;;;;;;;2.23;2.03;;;;;;;16.99;53.62;100065.56;1749587;80;25850;-59
2021/05/27 08:12:08;;;;;;;3.12;2.40;;;;;;;16.87;53.68;100078.78;1746007;81;27478;-59
2021/05/27 08:14:37;;;;;;;3.85;2.02;;;;;;;16.74;53.49;100075.36;1757224;80;25827;-59
2021/05/27 08:17:04;;;;;;;3.95;2.40;;;;;;;16.63;53.97;100074.31;1760023;80;26053;-59
2021/05/27 08:19:31;;;;;;;4.33;2.02;;;;;;;16.68;53.99;100084.17;1729618;81;25750;-59
2021/05/27 08:21:57;;;;;;;2.90;2.15;;;;;;;16.77;53.61;100082.84;1728136;81;25896;-59
2021/05/27 08:24:24;;;;;;;1.92;1.82;;;;;;;17.20;53.39;100092.57;1729273;81;29529;-59
2021/05/27 08:26:51;;;;;;;2.42;1.40;;;;;;;17.70;51.07;100094.92;1725214;81;25648;-59
2021/05/27 08:29:17;;;;;;;4.45;1.60;;;;;;;18.34;49.86;100090.41;1736238;81;25641;-59
2021/05/27 08:31:43;;;;;;;2.08;1.47;;;;;;;18.99;48.71;100090.80;1701446;82;25887;-59
2021/05/27 08:34:11;;;;;;;2.80;1.90;;;;;;;19.32;44.10;100100.22;1691174;82;26241;-59
2021/05/27 08:36:38;;;;;;;3.75;1.67;;;;;;;19.57;47.28;100094.27;1688332;83;27384;-59
2021/05/27 08:39:08;;;;;;;3.22;1.60;;;;;;;20.06;48.01;100091.85;1696149;82;25898;-58
2021/05/27 08:41:36;;;;;;;3.67;1.50;;;;;;;20.63;46.95;100096.25;1652188;83;25895;-58
2021/05/27 08:44:05;;;;;;;3.55;1.60;;;;;;;21.07;46.86;100100.83;1719202;81;26128;-60
2021/05/27 08:46:32;;;;;;;3.47;1.60;;;;;;;21.09;45.06;100101.23;1725835;81;25739;-60
2021/05/27 08:49:01;;;;;;;3.33;1.40;;;;;;;21.08;44.81;100109.30;1735355;80;27385;-59
2021/05/27 08:51:33;;;;;;;6.20;1.30;;;;;;;21.00;44.25;100111.20;1754623;80;25753;-61
2021/05/27 08:53:56;;;;;;;1.77;1.10;;;;;;;20.89;43.72;100118.59;1745812;80;25786;-60
2021/05/27 08:56:22;;;;;;;1.57;1.10;;;;;;;21.06;44.26;100112.99;1762350;80;25953;-60
2021/05/27 08:58:49;;;;;;;1.62;1.52;;;;;;;21.46;42.76;100116.73;1758060;80;25664;-60
2021/05/27 09:01:20;;;;;;;4.10;2.37;;;;;;;21.74;42.65;100111.13;1756091;80;27981;-60
2021/05/27 09:03:46;;;;;;;1.82;1.37;;;;;;;22.24;42.71;100125.59;1700450;80;26122;-60
2021/05/27 09:06:13;;;;;;;20.72;9.58;;;;;;;22.61;41.82;100123.84;1734095;81;25725;-60
2021/05/27 09:08:40;;;;;;;7.58;1.85;;;;;;;22.92;41.84;100114.55;1761938;80;25654;-59
2021/05/27 09:11:21;;;;;;;3.15;1.10;;;;;;;23.37;41.16;100120.92;1756745;80;25762;-60
2021/05/27 09:13:59;;;;;;;3.60;1.40;;;;;;;23.44;35.63;100119.51;1746574;80;27333;-60
2021/05/27 09:16:27;;;;;;;1.98;1.20;;;;;;;23.23;38.21;100123.16;1759769;80;25672;-59
2021/05/27 09:18:54;;;;;;;1.85;1.50;;;;;;;22.66;38.05;100122.64;1752213;79;25870;-58
2021/05/27 09:21:37;;;;;;;1.70;1.17;;;;;;;22.42;39.01;100120.88;1753732;80;25847;-60
2021/05/27 09:24:04;;;;;;;3.22;1.42;;;;;;;22.73;39.81;100121.25;1753906;80;25620;-59
2021/05/27 09:26:31;;;;;;;1.22;1.12;;;;;;;22.42;38.50;100128.37;1756002;80;27284;-59
2021/05/27 09:29:11;;;;;;;2.80;1.20;;;;;;;22.06;37.86;100129.70;1728111;81;25750;-60
2021/05/27 09:31:57;;;;;;;2.70;1.55;;;;;;;21.76;38.99;100134.36;1729484;81;25683;-60
2021/05/27 09:34:45;;;;;;;2.60;1.20;;;;;;;22.29;38.50;100126.02;1751538;80;26333;-60
2021/05/27 09:37:29;;;;;;;3.58;1.22;;;;;;;22.64;38.44;100127.17;1726077;80;26668;-60
2021/05/27 09:39:58;;;;;;;3.25;1.37;;;;;;;23.27;36.90;100125.30;1740105;80;27335;-60
2021/05/27 09:42:26;;;;;;;2.37;1.15;;;;;;;23.48;36.26;100125.81;1694570;83;27162;-60
2021/05/27 09:44:53;;;;;;;2.40;2.10;;;;;;;23.18;35.99;100135.98;1706018;82;25857;-60
2021/05/27 09:47:34;;;;;;;1.32;1.22;;;;;;;22.79;36.17;100139.58;1697449;82;25750;-59
2021/05/27 09:50:09;;;;;;;2.55;1.22;;;;;;;22.78;36.68;100127.73;1691921;82;25787;-58
2021/05/27 09:52:48;;;;;;;1.65;0.88;;;;;;;23.20;34.60;100132.22;1709377;82;27405;-60
2021/05/27 09:55:18;;;;;;;2.90;1.00;;;;;;;23.46;36.49;100127.59;1692101;82;26451;-59
2021/05/27 09:57:47;;;;;;;2.65;1.10;;;;;;;23.67;36.08;100151.55;1689406;82;25811;-59
2021/05/27 10:00:26;;;;;;;1.32;1.10;;;;;;;23.35;34.92;100141.24;1688611;82;25705;-59
2021/05/27 10:02:54;;;;;;;4.00;1.10;;;;;;;22.94;35.44;100146.04;1691154;82;26444;-59
2021/05/27 10:05:21;;;;;;;6.60;1.52;;;;;;;22.29;35.25;100148.05;1682475;83;27334;-59
2021/05/27 10:07:53;;;;;;;2.65;1.07;;;;;;;22.50;37.41;100136.23;1708182;82;26457;-59
2021/05/27 10:10:22;;;;;;;1.12;1.00;;;;;;;22.94;37.28;100150.17;1730540;81;25646;-59
2021/05/27 10:12:54;;;;;;;3.20;1.40;;;;;;;23.01;36.84;100155.49;1723125;82;25840;-59
2021/05/27 10:15:24;;;;;;;1.35;0.90;;;;;;;23.36;35.70;100152.45;1727018;81;25641;-59
2021/05/27 10:17:53;;;;;;;0.82;0.80;;;;;;;23.68;35.43;100155.89;1733542;81;27329;-60
2021/05/27 10:20:22;;;;;;;4.80;2.02;;;;;;;23.99;33.36;100147.86;1723376;81;26952;-60
2021/05/27 10:22:49;;;;;;;1.40;0.98;;;;;;;23.65;34.18;100159.45;1753856;80;25764;-60
2021/05/27 10:25:17;;;;;;;3.87;0.90;;;;;;;23.57;32.35;100161.27;1753471;80;25852;-60
2021/05/27 10:27:47;;;;;;;2.10;1.10;;;;;;;23.16;34.75;100154.91;1760250;80;26369;-60
2021/05/27 10:30:16;;;;;;;3.80;1.02;;;;;;;23.21;33.70;100166.91;1753045;80;27295;-60
2021/05/27 10:32:53;;;;;;;3.12;0.85;;;;;;;22.95;34.88;100155.09;1753452;80;26558;-60
2021/05/27 10:35:20;;;;;;;1.17;0.88;;;;;;;23.34;33.70;100163.89;1746152;80;25700;-59
2021/05/27 10:37:52;;;;;;;1.22;0.60;;;;;;;23.65;34.69;100162.78;1718361;81;25884;-60
2021/05/27 10:40:24;;;;;;;1.12;1.00;;;;;;;24.06;33.13;100166.36;1744132;80;26166;-60
2021/05/27 10:43:08;;;;;;;2.52;2.30;;;;;;;24.31;33.51;100171.70;1756745;80;27300;-59
2021/05/27 10:45:35;;;;;;;2.25;1.10;;;;;;;24.52;33.29;100145.08;1762419;80;27012;-60
2021/05/27 10:48:20;;;;;;;1.45;1.07;;;;;;;25.11;32.40;100153.23;1738513;80;25817;-59
2021/05/27 10:53:44;;;;;;;3.12;1.22;;;;;;;25.40;32.10;100149.39;1748023;80;26159;-60
2021/05/27 10:56:16;;;;;;;1.35;1.00;;;;;;;25.72;33.09;100148.38;1744318;80;27250;-60
2021/05/27 10:58:57;;;;;;;1.82;0.80;;;;;;;26.17;31.38;100153.52;1745628;80;25650;-60
2021/05/27 11:01:40;;;;;;;2.42;0.90;;;;;;;25.99;30.70;100156.56;1742485;80;25791;-60
2021/05/27 11:04:08;;;;;;;1.20;0.93;;;;;;;25.39;31.49;100163.03;1663044;84;27366;-60
2021/05/27 11:06:40;;;;;;;1.80;0.95;;;;;;;24.91;31.25;100165.52;1670223;84;25785;-60
2021/05/27 11:09:25;;;;;;;1.75;0.90;;;;;;;24.44;31.49;100167.86;1667151;84;27341;-60
2021/05/27 11:12:00;;;;;;;1.50;1.25;;;;;;;24.03;32.34;100170.70;1665656;84;25855;-59
2021/05/27 11:14:35;;;;;;;1.82;1.00;;;;;;;23.53;32.53;100170.94;1661096;84;26687;-60
2021/05/27 11:17:28;;;;;;;1.25;1.15;;;;;;;23.38;32.98;100170.20;1672383;84;27507;-60
2021/05/27 11:19:56;;;;;;;1.95;1.15;;;;;;;23.88;34.31;100169.22;1652828;84;26431;-59
2021/05/27 11:25:20;;;;;;;1.70;1.60;;;;;;;24.96;33.65;100164.27;1665793;85;25819;-59
2021/05/27 11:28:04;;;;;;;2.25;1.40;;;;;;;25.62;31.43;100169.30;1669591;85;25868;-59
2021/05/27 11:30:41;;;;;;;1.25;1.07;;;;;;;25.78;31.46;100179.77;1669457;84;26068;-59
2021/05/27 11:33:22;;;;;;;2.02;1.12;;;;;;;25.51;31.56;100169.44;1662858;84;25778;-58
2021/05/27 11:35:53;;;;;;;3.87;1.50;;;;;;;25.90;31.54;100168.92;1669674;84;27911;-59
2021/05/27 11:38:23;;;;;;;2.83;1.55;;;;;;;25.88;30.06;100164.40;1668559;84;25936;-60
2021/05/27 11:40:57;;;;;;;3.08;1.85;;;;;;;25.42;31.06;100164.98;1683451;81;25757;-60
2021/05/27 11:43:44;;;;;;;1.42;1.32;;;;;;;25.10;31.63;100161.97;1750043;80;25720;-59
2021/05/27 11:46:18;;;;;;;2.02;1.62;;;;;;;24.93;31.64;100168.65;1751971;80;26528;-59
2021/05/27 11:51:32;;;;;;;2.12;1.75;;;;;;;25.14;32.76;100169.02;1762960;79;27165;-60
2021/05/27 11:54:03;;;;;;;2.02;1.72;;;;;;;25.64;30.51;100180.16;1760477;80;25871;-61
2021/05/27 11:56:44;;;;;;;1.70;1.60;;;;;;;25.83;31.06;100180.68;1765441;79;25742;-60
2021/05/27 11:59:19;;;;;;;4.05;2.40;;;;;;;25.82;30.36;100167.44;1766352;80;25607;-60
2021/05/27 12:01:58;;;;;;;3.87;2.47;;;;;;;25.68;29.69;100162.87;1756916;80;27307;-60
2021/05/27 12:04:27;;;;;;;1.98;1.40;;;;;;;25.89;30.52;100172.10;1728354;80;25887;-60
2021/05/27 12:07:02;;;;;;;2.92;2.20;;;;;;;26.02;29.90;100168.20;1764134;80;25870;-60
2021/05/27 12:09:38;;;;;;;2.17;1.50;;;;;;;25.99;29.71;100165.66;1756325;80;25763;-59
2021/05/27 12:12:24;;;;;;;2.27;2.15;;;;;;;26.22;30.44;100177.98;1763073;80;25723;-60
2021/05/27 12:14:58;;;;;;;2.52;1.90;;;;;;;26.51;29.72;100171.99;1716896;80;28573;-60
2021/05/27 12:17:36;;;;;;;3.67;1.75;;;;;;;26.37;30.05;100173.78;1759157;79;25841;-60
2021/05/27 12:20:13;;;;;;;2.08;1.85;;;;;;;26.03;29.69;100173.91;1744704;79;25899;-60
2021/05/27 12:23:00;;;;;;;3.08;1.45;;;;;;;25.55;29.82;100171.55;1764228;79;25723;-60
2021/05/27 12:25:36;;;;;;;2.87;2.35;;;;;;;25.57;29.98;100175.29;1758262;80;25660;-60
2021/05/27 12:28:17;;;;;;;2.60;1.75;;;;;;;25.43;29.67;100180.41;1766311;79;27279;-60
2021/05/27 12:30:53;;;;;;;2.55;1.90;;;;;;;24.99;29.41;100180.05;1765327;79;25770;-60
2021/05/27 12:33:23;;;;;;;3.10;1.65;;;;;;;24.52;30.11;100187.35;1757292;80;25878;-60
2021/05/27 12:35:54;;;;;;;5.30;2.45;;;;;;;24.19;30.87;100187.38;1767071;80;26387;-60
2021/05/27 12:38:24;;;;;;;2.55;2.25;;;;;;;24.05;31.12;100183.52;1712271;81;25887;-60
2021/05/27 12:40:56;;;;;;;4.03;2.15;;;;;;;24.34;31.19;100177.80;1764158;79;27331;-61
2021/05/27 12:43:42;;;;;;;2.40;2.20;;;;;;;24.74;31.07;100171.98;1754594;80;25759;-60
2021/05/27 12:46:12;;;;;;;2.75;1.65;;;;;;;24.90;30.93;100168.08;1762730;80;25887;-60
2021/05/27 12:48:57;;;;;;;1.75;1.65;;;;;;;25.42;31.30;100167.17;1761679;80;25736;-61
2021/05/27 12:51:28;;;;;;;1.55;1.45;;;;;;;25.91;29.89;100180.77;1763937;79;25988;-60
2021/05/27 12:53:58;;;;;;;2.45;2.33;;;;;;;25.72;29.94;100169.75;1765546;79;27322;-60
2021/05/27 12:56:29;;;;;;;2.47;2.25;;;;;;;25.62;29.53;100179.77;1755830;79;25809;-60
2021/05/27 12:59:07;;;;;;;2.00;1.60;;;;;;;25.28;29.94;100179.17;1753547;80;25728;-60
2021/05/27 13:01:40;;;;;;;3.10;1.37;;;;;;;25.35;30.33;100178.30;1758397;80;25889;-60
2021/05/27 13:04:10;;;;;;;3.70;1.07;;;;;;;25.52;30.13;100178.72;1762070;80;25724;-60
2021/05/27 13:06:39;;;;;;;4.25;2.83;;;;;;;25.40;30.03;100190.31;1762991;79;27312;-60
2021/05/27 13:09:10;;;;;;;2.12;2.00;;;;;;;25.01;28.58;100184.56;1758081;80;25710;-59
2021/05/27 13:11:47;;;;;;;4.37;3.50;;;;;;;24.54;28.95;100188.33;1752464;79;26467;-60
2021/05/27 13:14:20;;;;;;;3.75;2.95;;;;;;;24.13;29.84;100195.32;1753314;80;25677;-59
2021/05/27 13:16:51;;;;;;;4.08;3.35;;;;;;;23.98;29.57;100195.22;1753297;80;25898;-61
2021/05/27 13:19:30;;;;;;;4.60;3.30;;;;;;;23.82;30.40;100190.15;1761807;80;27299;-60
2021/05/27 13:22:04;;;;;;;4.03;3.77;;;;;;;23.57;30.33;100190.25;1757549;79;25992;-59
2021/05/27 13:24:42;;;;;;;3.47;2.35;;;;;;;23.13;30.38;100191.73;1758445;80;25870;-60
2021/05/27 13:27:32;;;;;;;2.52;2.33;;;;;;;22.66;31.12;100195.69;1751911;79;25763;-60
2021/05/27 13:29:59;;;;;;;4.95;3.75;;;;;;;22.55;31.63;100192.94;1742852;80;25786;-60
2021/05/27 13:32:33;;;;;;;3.27;1.25;;;;;;;22.49;32.14;100176.02;1734031;81;28005;-59
2021/05/27 13:35:10;;;;;;;1.40;1.30;;;;;;;22.55;32.08;100196.47;1741970;80;25848;-60
2021/05/27 13:37:46;;;;;;;1.57;1.20;;;;;;;22.06;31.11;100186.92;1740424;81;25717;-61
2021/05/27 13:40:28;;;;;;;3.95;3.52;;;;;;;21.71;31.81;100183.47;1734437;80;26131;-60
2021/05/27 13:42:56;;;;;;;5.28;4.83;;;;;;;21.75;32.46;100181.53;1744324;80;25851;-59
2021/05/27 13:45:26;;;;;;;4.08;2.75;;;;;;;21.77;32.78;100184.08;1687518;83;27999;-58
2021/05/27 13:47:54;;;;;;;6.15;4.22;;;;;;;21.65;32.77;100174.81;1697245;83;25935;-59
2021/05/27 13:50:28;;;;;;;6.87;3.08;;;;;;;21.55;32.69;100169.45;1681051;83;25738;-59
2021/05/27 13:53:00;;;;;;;3.35;3.15;;;;;;;21.73;33.59;100172.29;1670718;84;27528;-58
2021/05/27 13:55:27;;;;;;;4.97;4.58;;;;;;;22.07;33.82;100174.75;1664928;84;25979;-60
2021/05/27 13:57:55;;;;;;;4.40;4.05;;;;;;;22.28;33.00;100172.63;1668629;83;27552;-60
2021/05/27 14:00:22;;;;;;;4.35;3.80;;;;;;;22.27;32.00;100184.82;1666007;83;27272;-59
2021/05/27 14:02:48;;;;;;;4.45;4.12;;;;;;;21.99;32.01;100178.66;1684183;82;25781;-60
2021/05/27 14:05:17;;;;;;;5.17;4.72;;;;;;;21.97;32.57;100181.80;1682188;83;26101;-59
2021/05/27 14:07:44;;;;;;;2.83;2.62;;;;;;;22.11;32.09;100179.66;1699931;82;33037;-58
2021/05/27 14:10:12;;;;;;;4.90;4.17;;;;;;;22.20;33.14;100173.20;1749515;80;27346;-60
2021/05/27 14:12:38;;;;;;;3.27;3.02;;;;;;;22.38;31.29;100172.45;1726763;81;25861;-59
2021/05/27 14:15:07;;;;;;;3.72;3.40;;;;;;;22.25;31.51;100183.02;1715142;80;25706;-58
2021/05/27 14:17:36;;;;;;;4.87;4.58;;;;;;;21.96;31.14;100189.06;1727174;81;26519;-59
2021/05/27 14:20:05;;;;;;;;;;;;;;;21.80;31.74;100186.66;1726494;81;25811;-60
2021/05/27 14:22:31;;;;;;;6.60;6.03;;;;;;;21.62;31.28;100192.90;1735949;80;27386;-59
2021/05/27 14:24:58;;;;;;;4.00;3.75;;;;;;;21.34;32.24;100180.34;1695617;83;25767;-60
2021/05/27 14:27:24;;;;;;;3.40;3.10;;;;;;;21.18;32.45;100180.63;1687716;82;25789;-59
2021/05/27 14:29:52;;;;;;;19.52;17.85;;;;;;;20.99;32.22;100187.19;1701449;82;27552;-59
2021/05/27 14:32:36;;;;;;;6.85;6.33;;;;;;;20.81;32.80;100185.11;1701184;82;25638;-59
2021/05/27 14:35:08;;;;;;;3.50;3.20;;;;;;;20.77;33.46;100184.30;1692561;82;27375;-60
2021/05/27 14:37:35;;;;;;;4.28;3.98;;;;;;;20.89;33.96;100177.69;1696828;82;26007;-60
2021/05/27 14:40:06;;;;;;;3.40;3.12;;;;;;;21.02;33.50;100178.97;1693984;82;25847;-59
2021/05/27 14:42:32;;;;;;;4.58;4.22;;;;;;;20.95;33.37;100176.17;1699656;81;26536;-58
2021/05/27 14:44:58;;;;;;;4.65;4.28;;;;;;;20.81;33.25;100180.21;1683957;82;25902;-58
2021/05/27 14:47:26;;;;;;;4.45;4.05;;;;;;;20.76;33.96;100181.34;1759515;80;27379;-58
2021/05/27 14:49:52;;;;;;;4.75;4.28;;;;;;;20.76;33.92;100181.94;1753332;80;25825;-59
2021/05/27 14:52:19;;;;;;;6.15;5.70;;;;;;;20.71;34.15;100186.59;1756652;80;26329;-56
2021/05/27 14:54:45;;;;;;;4.60;3.35;;;;;;;20.74;34.67;100183.69;1751695;80;26163;-57
2021/05/27 14:57:12;;;;;;;4.42;4.00;;;;;;;20.82;34.81;100182.58;1752875;80;25740;-57
2021/05/27 14:59:38;;;;;;;4.17;3.72;;;;;;;20.99;35.05;100182.47;1761590;80;27421;-56
2021/05/27 15:02:06;;;;;;;3.95;1.60;;;;;;;21.25;35.00;100189.72;1761715;80;25795;-59
2021/05/27 15:04:33;;;;;;;2.52;1.20;;;;;;;21.40;34.08;100190.59;1704916;80;25841;-59
2021/05/27 15:07:02;;;;;;;1.75;1.65;;;;;;;21.47;34.74;100191.82;1763125;80;25764;-59
2021/05/27 15:09:29;;;;;;;2.40;1.42;;;;;;;21.61;34.91;100187.78;1762592;80;25790;-58
2021/05/27 15:11:55;;;;;;;4.80;1.95;;;;;;;21.77;34.73;100186.06;1762392;80;27284;-55
2021/05/27 15:14:22;;;;;;;4.10;2.37;;;;;;;21.85;34.20;100190.42;1754236;80;25692;-59
2021/05/27 15:16:48;;;;;;;3.70;1.87;;;;;;;21.77;34.29;100188.81;1763668;79;25770;-58
2021/05/27 15:19:15;;;;;;;5.55;5.20;;;;;;;21.63;34.01;100190.33;1750915;80;26088;-58
2021/05/27 15:21:43;;;;;;;5.62;4.42;;;;;;;21.55;34.32;100187.94;1762702;80;25727;-58
2021/05/27 15:24:12;;;;;;;8.00;6.47;;;;;;;21.57;34.83;100185.58;1766685;80;27371;-59
2021/05/27 15:26:40;;;;;;;7.40;4.47;;;;;;;21.56;34.72;100189.52;1713127;81;25770;-59
2021/05/27 15:29:19;;;;;;;6.12;5.78;;;;;;;21.53;34.47;100186.94;1759112;79;25772;-58
2021/05/27 15:31:47;;;;;;;7.72;7.12;;;;;;;21.45;34.16;100194.92;1755778;80;26706;-60
2021/05/27 15:34:14;;;;;;;4.10;3.77;;;;;;;21.24;34.10;100181.86;1740062;80;25496;-59
2021/05/27 15:36:42;;;;;;;7.55;6.95;;;;;;;21.12;34.40;100180.22;1752469;80;27465;-59
2021/05/27 15:39:09;;;;;;;6.80;5.90;;;;;;;21.10;34.69;100181.19;1747328;80;25998;-59
2021/05/27 15:41:35;;;;;;;9.05;8.33;;;;;;;21.11;34.47;100182.75;1760292;80;26347;-59
2021/05/27 15:44:03;;;;;;;5.20;4.90;;;;;;;21.03;34.24;100186.05;1766259;79;27590;-58
2021/05/27 15:46:30;;;;;;;3.33;1.60;;;;;;;20.75;33.95;100191.34;1726665;80;25958;-58
2021/05/27 15:48:56;;;;;;;2.08;1.40;;;;;;;20.51;34.02;100195.62;1760311;80;28002;-59
2021/05/27 15:51:23;;;;;;;4.53;4.12;;;;;;;20.22;33.88;100190.44;1762755;80;25667;-59
2021/05/27 15:53:49;;;;;;;1.37;1.27;;;;;;;19.99;33.98;100191.98;1751406;80;25649;-58
2021/05/27 15:56:16;;;;;;;2.40;1.45;;;;;;;19.81;34.51;100189.61;1748698;80;25807;-59
2021/05/27 15:58:42;;;;;;;2.08;1.60;;;;;;;19.70;35.07;100191.62;1743909;79;25837;-59
2021/05/27 16:01:08;;;;;;;2.98;1.40;;;;;;;19.65;35.29;100193.32;1739399;80;27366;-59
2021/05/27 16:03:35;;;;;;;6.35;5.75;;;;;;;19.65;35.69;100193.32;1760746;80;25630;-59
2021/05/27 16:06:02;;;;;;;5.25;4.28;;;;;;;19.68;35.84;100191.20;1765907;80;25944;-59
2021/05/27 16:08:44;;;;;;;6.67;6.20;;;;;;;19.76;35.99;100192.87;1747748;80;25870;-59
2021/05/27 16:11:38;;;;;;;7.22;6.55;;;;;;;19.84;35.66;100194.36;1760149;79;25957;-59
2021/05/27 16:14:05;;;;;;;5.47;4.95;;;;;;;19.80;35.36;100188.80;1765165;79;27332;-59
2021/05/27 16:16:33;;;;;;;3.30;2.95;;;;;;;19.87;35.06;100184.79;1758247;80;25805;-59
2021/05/27 16:18:59;;;;;;;5.47;5.08;;;;;;;19.87;35.14;100180.67;1762293;80;25908;-59
2021/05/27 16:21:27;;;;;;;6.30;5.10;;;;;;;19.88;35.50;100177.34;1762702;79;25652;-58
2021/05/27 16:23:54;;;;;;;4.72;4.42;;;;;;;19.95;35.60;100188.39;1766198;80;25663;-59
2021/05/27 16:26:21;;;;;;;4.87;4.50;;;;;;;19.93;35.09;100189.35;1760292;79;27351;-59
2021/05/27 16:28:48;;;;;;;8.58;7.72;;;;;;;19.95;35.17;100189.77;1766331;79;25840;-59
2021/05/27 16:31:16;;;;;;;4.42;3.62;;;;;;;19.92;35.04;100185.02;1758332;80;25720;-57
2021/05/27 16:33:47;;;;;;;9.80;7.42;;;;;;;19.88;34.88;100177.34;1750630;80;25874;-59
2021/05/27 16:38:56;;;;;;;4.30;3.87;;;;;;;19.88;34.77;100183.61;1748603;80;27313;-59
2021/05/27 16:41:23;;;;;;;4.42;3.60;;;;;;;19.88;34.80;100187.72;1763554;80;25751;-58
2021/05/27 16:43:50;;;;;;;5.78;4.42;;;;;;;19.81;34.42;100189.02;1763089;79;26558;-59
2021/05/27 16:46:17;;;;;;;4.12;3.72;;;;;;;19.70;34.42;100186.69;1758777;80;27462;-59
2021/05/27 16:48:44;;;;;;;5.00;4.70;;;;;;;19.58;34.61;100182.23;1764995;80;25487;-58
2021/05/27 16:51:11;;;;;;;5.03;4.62;;;;;;;19.53;34.81;100189.42;1762365;79;27444;-58
2021/05/27 16:53:37;;;;;;;3.50;3.20;;;;;;;19.45;34.96;100186.40;1767046;80;25768;-59
2021/05/27 16:56:04;;;;;;;5.25;4.83;;;;;;;19.40;35.08;100194.36;1761464;80;26331;-58
2021/05/27 16:58:32;;;;;;;47.80;45.10;;;;;;;19.30;35.07;100192.27;1755786;79;26028;-59
2021/05/27 17:00:58;;;;;;;4.72;4.37;;;;;;;19.14;35.23;100190.48;1757078;80;25834;-60
2021/05/27 17:03:24;;;;;;;8.65;7.95;;;;;;;19.08;35.88;100196.06;1760385;79;27447;-59
2021/05/27 17:05:51;;;;;;;7.58;7.08;;;;;;;19.02;35.83;100195.59;1760003;80;25917;-59
2021/05/27 17:08:17;;;;;;;8.05;7.22;;;;;;;19.00;35.77;100196.55;1768300;80;25760;-60
2021/05/27 17:10:48;;;;;;;11.57;10.88;;;;;;;18.96;36.01;100195.69;1757580;80;26607;-59
2021/05/27 17:13:18;;;;;;;15.03;14.05;;;;;;;18.94;35.80;100195.85;1753131;80;25794;-59
2021/05/27 17:15:46;;;;;;;7.05;6.47;;;;;;;18.89;36.01;100194.80;1748007;80;27458;-59
2021/05/27 17:18:12;;;;;;;7.60;5.83;;;;;;;18.83;35.94;100197.84;1741927;80;25886;-59